sensor_id;sensor_type;location;lat;lon;timestamp;temperature;humidity
26743;DHT22;14341;51.256;22.478;2022-08-03T00:09:05;16.60;99.90
26743;DHT22;14341;51.256;22.478;2022-08-03T00:12:09;16.60;99.90
26743;DHT22;14341;51.256;22.478;2022-08-03T00:15:12;16.70;99.90
26743;DHT22;14341;51.256;22.478;2022-08-03T00:18:18;16.70;99.90
26743;DHT22;14341;51.256;22.478;2022-08-03T00:21:21;16.80;99.90
26743;DHT22;14341;51.256;22.478;2022-08-03T00:27:29;16.90;99.90
26743;DHT22;14341;51.256;22.478;2022-08-03T00:30:34;16.90;99.90
26743;DHT22;14341;51.256;22.478;2022-08-03T00:33:38;16.90;99.90
26743;DHT22;14341;51.256;22.478;2022-08-03T00:37:00;17.00;99.90
26743;DHT22;14341;51.256;22.478;2022-08-03T00:43:09;17.00;99.90
26743;DHT22;14341;51.256;22.478;2022-08-03T00:46:13;17.10;99.90
26743;DHT22;14341;51.256;22.478;2022-08-03T00:49:22;17.10;99.90
26743;DHT22;14341;51.256;22.478;2022-08-03T00:52:26;17.10;99.90
26743;DHT22;14341;51.256;22.478;2022-08-03T00:58:34;17.20;99.90
26743;DHT22;14341;51.256;22.478;2022-08-03T01:01:37;17.10;99.90
26743;DHT22;14341;51.256;22.478;2022-08-03T01:04:41;17.20;99.90
26743;DHT22;14341;51.256;22.478;2022-08-03T01:07:54;17.20;99.90
26743;DHT22;14341;51.256;22.478;2022-08-03T01:11:08;17.20;99.90
26743;DHT22;14341;51.256;22.478;2022-08-03T01:14:16;17.30;99.90
26743;DHT22;14341;51.256;22.478;2022-08-03T01:17:26;17.20;99.90
26743;DHT22;14341;51.256;22.478;2022-08-03T01:20:37;17.10;99.90
26743;DHT22;14341;51.256;22.478;2022-08-03T01:27:21;17.00;99.90
26743;DHT22;14341;51.256;22.478;2022-08-03T01:30:29;16.90;99.90
26743;DHT22;14341;51.256;22.478;2022-08-03T01:33:36;16.80;99.90
26743;DHT22;14341;51.256;22.478;2022-08-03T01:36:45;16.80;99.90
26743;DHT22;14341;51.256;22.478;2022-08-03T01:39:52;16.80;99.90
26743;DHT22;14341;51.256;22.478;2022-08-03T01:42:59;16.70;99.90
26743;DHT22;14341;51.256;22.478;2022-08-03T01:46:06;16.70;99.90
26743;DHT22;14341;51.256;22.478;2022-08-03T01:49:11;16.70;99.90
26743;DHT22;14341;51.256;22.478;2022-08-03T01:52:17;16.70;99.90
26743;DHT22;14341;51.256;22.478;2022-08-03T01:55:22;16.80;99.90
26743;DHT22;14341;51.256;22.478;2022-08-03T01:58:29;16.70;99.90
26743;DHT22;14341;51.256;22.478;2022-08-03T02:01:35;16.70;99.90
26743;DHT22;14341;51.256;22.478;2022-08-03T02:05:00;16.80;99.90
26743;DHT22;14341;51.256;22.478;2022-08-03T02:08:06;16.80;99.90
26743;DHT22;14341;51.256;22.478;2022-08-03T02:11:10;16.80;99.90
26743;DHT22;14341;51.256;22.478;2022-08-03T02:14:15;16.90;99.90
26743;DHT22;14341;51.256;22.478;2022-08-03T02:17:21;16.90;99.90
26743;DHT22;14341;51.256;22.478;2022-08-03T02:20:42;16.90;99.90
26743;DHT22;14341;51.256;22.478;2022-08-03T02:23:46;16.90;99.90
26743;DHT22;14341;51.256;22.478;2022-08-03T02:26:50;16.90;99.90
26743;DHT22;14341;51.256;22.478;2022-08-03T02:29:59;16.80;99.90
26743;DHT22;14341;51.256;22.478;2022-08-03T02:33:09;16.80;99.90
26743;DHT22;14341;51.256;22.478;2022-08-03T02:36:14;16.80;99.90
26743;DHT22;14341;51.256;22.478;2022-08-03T02:39:21;16.80;99.90
26743;DHT22;14341;51.256;22.478;2022-08-03T02:42:26;16.80;99.90
26743;DHT22;14341;51.256;22.478;2022-08-03T02:45:31;16.80;99.90
26743;DHT22;14341;51.256;22.478;2022-08-03T02:48:40;16.90;99.90
26743;DHT22;14341;51.256;22.478;2022-08-03T02:51:46;16.80;99.90
26743;DHT22;14341;51.256;22.478;2022-08-03T02:54:54;16.70;99.90
26743;DHT22;14341;51.256;22.478;2022-08-03T02:57:58;16.70;99.90
26743;DHT22;14341;51.256;22.478;2022-08-03T03:01:02;16.80;99.90
26743;DHT22;14341;51.256;22.478;2022-08-03T03:04:09;16.80;99.90
26743;DHT22;14341;51.256;22.478;2022-08-03T03:07:14;16.80;99.90
26743;DHT22;14341;51.256;22.478;2022-08-03T03:10:19;16.80;99.90
26743;DHT22;14341;51.256;22.478;2022-08-03T03:13:23;16.80;99.90
26743;DHT22;14341;51.256;22.478;2022-08-03T03:16:28;16.80;99.90
26743;DHT22;14341;51.256;22.478;2022-08-03T03:19:34;16.70;99.90
26743;DHT22;14341;51.256;22.478;2022-08-03T03:22:39;16.70;99.90
26743;DHT22;14341;51.256;22.478;2022-08-03T03:25:46;16.60;99.90
26743;DHT22;14341;51.256;22.478;2022-08-03T03:28:49;16.60;99.90
26743;DHT22;14341;51.256;22.478;2022-08-03T03:31:53;16.60;99.90
26743;DHT22;14341;51.256;22.478;2022-08-03T03:34:59;16.60;99.90
26743;DHT22;14341;51.256;22.478;2022-08-03T03:38:03;16.60;99.90
26743;DHT22;14341;51.256;22.478;2022-08-03T03:41:06;16.60;99.90
26743;DHT22;14341;51.256;22.478;2022-08-03T03:44:10;16.60;99.90
26743;DHT22;14341;51.256;22.478;2022-08-03T03:47:13;16.80;99.90
26743;DHT22;14341;51.256;22.478;2022-08-03T03:50:19;16.90;99.90
26743;DHT22;14341;51.256;22.478;2022-08-03T03:53:24;16.90;99.90
26743;DHT22;14341;51.256;22.478;2022-08-03T03:56:28;17.00;99.90
26743;DHT22;14341;51.256;22.478;2022-08-03T03:59:31;16.90;99.90
26743;DHT22;14341;51.256;22.478;2022-08-03T04:02:38;16.90;99.90
26743;DHT22;14341;51.256;22.478;2022-08-03T04:05:43;16.90;99.90
26743;DHT22;14341;51.256;22.478;2022-08-03T04:09:07;16.80;99.90
26743;DHT22;14341;51.256;22.478;2022-08-03T04:12:30;16.90;99.90
26743;DHT22;14341;51.256;22.478;2022-08-03T04:15:35;16.90;99.90
26743;DHT22;14341;51.256;22.478;2022-08-03T04:18:40;17.00;99.90
26743;DHT22;14341;51.256;22.478;2022-08-03T04:21:49;17.10;99.90
26743;DHT22;14341;51.256;22.478;2022-08-03T04:24:57;17.20;99.90
26743;DHT22;14341;51.256;22.478;2022-08-03T04:28:02;17.30;99.90
26743;DHT22;14341;51.256;22.478;2022-08-03T04:31:26;17.30;99.90
26743;DHT22;14341;51.256;22.478;2022-08-03T04:34:30;17.40;99.90
26743;DHT22;14341;51.256;22.478;2022-08-03T04:37:38;17.60;99.90
26743;DHT22;14341;51.256;22.478;2022-08-03T04:40:43;17.60;99.90
26743;DHT22;14341;51.256;22.478;2022-08-03T04:43:48;17.70;99.90
26743;DHT22;14341;51.256;22.478;2022-08-03T04:46:54;17.90;99.90
26743;DHT22;14341;51.256;22.478;2022-08-03T04:49:59;18.00;99.90
26743;DHT22;14341;51.256;22.478;2022-08-03T04:53:06;18.00;99.90
26743;DHT22;14341;51.256;22.478;2022-08-03T04:56:10;18.20;99.90
26743;DHT22;14341;51.256;22.478;2022-08-03T04:59:14;18.30;99.90
26743;DHT22;14341;51.256;22.478;2022-08-03T05:02:18;18.40;99.90
26743;DHT22;14341;51.256;22.478;2022-08-03T05:05:22;18.50;99.90
26743;DHT22;14341;51.256;22.478;2022-08-03T05:08:27;18.50;99.90
26743;DHT22;14341;51.256;22.478;2022-08-03T05:11:30;18.60;99.90
26743;DHT22;14341;51.256;22.478;2022-08-03T05:14:34;18.60;99.90
26743;DHT22;14341;51.256;22.478;2022-08-03T05:17:39;18.60;99.90
26743;DHT22;14341;51.256;22.478;2022-08-03T05:20:42;18.70;99.90
26743;DHT22;14341;51.256;22.478;2022-08-03T05:26:51;19.00;99.90
26743;DHT22;14341;51.256;22.478;2022-08-03T05:29:54;19.20;99.90
26743;DHT22;14341;51.256;22.478;2022-08-03T05:33:18;19.30;99.90
26743;DHT22;14341;51.256;22.478;2022-08-03T05:36:21;19.40;99.90
26743;DHT22;14341;51.256;22.478;2022-08-03T05:39:25;19.40;99.90
26743;DHT22;14341;51.256;22.478;2022-08-03T05:42:29;19.50;99.90
26743;DHT22;14341;51.256;22.478;2022-08-03T05:45:32;19.70;99.90
26743;DHT22;14341;51.256;22.478;2022-08-03T05:48:35;19.90;99.90
26743;DHT22;14341;51.256;22.478;2022-08-03T05:51:39;20.10;99.90
26743;DHT22;14341;51.256;22.478;2022-08-03T05:54:43;20.20;99.90
26743;DHT22;14341;51.256;22.478;2022-08-03T05:57:57;20.30;99.90
26743;DHT22;14341;51.256;22.478;2022-08-03T06:01:03;20.50;98.50
26743;DHT22;14341;51.256;22.478;2022-08-03T06:04:07;20.60;95.20
26743;DHT22;14341;51.256;22.478;2022-08-03T06:07:10;20.70;92.60
26743;DHT22;14341;51.256;22.478;2022-08-03T06:10:16;20.70;98.30
26743;DHT22;14341;51.256;22.478;2022-08-03T06:13:38;20.80;99.70
26743;DHT22;14341;51.256;22.478;2022-08-03T06:16:42;21.00;79.30
26743;DHT22;14341;51.256;22.478;2022-08-03T06:19:45;20.90;90.90
26743;DHT22;14341;51.256;22.478;2022-08-03T06:22:49;20.70;99.90
26743;DHT22;14341;51.256;22.478;2022-08-03T06:26:03;20.50;99.90
26743;DHT22;14341;51.256;22.478;2022-08-03T06:29:07;20.40;99.90
26743;DHT22;14341;51.256;22.478;2022-08-03T06:35:14;20.30;99.90
26743;DHT22;14341;51.256;22.478;2022-08-03T06:38:18;20.40;99.90
26743;DHT22;14341;51.256;22.478;2022-08-03T06:41:22;20.60;99.90
26743;DHT22;14341;51.256;22.478;2022-08-03T06:44:26;20.80;99.90
26743;DHT22;14341;51.256;22.478;2022-08-03T06:47:29;21.00;99.90
26743;DHT22;14341;51.256;22.478;2022-08-03T06:50:34;21.00;99.90
26743;DHT22;14341;51.256;22.478;2022-08-03T06:53:37;21.10;99.90
26743;DHT22;14341;51.256;22.478;2022-08-03T06:59:46;21.60;72.90
26743;DHT22;14341;51.256;22.478;2022-08-03T07:03:09;21.70;73.30
26743;DHT22;14341;51.256;22.478;2022-08-03T07:06:13;21.90;59.00
26743;DHT22;14341;51.256;22.478;2022-08-03T07:09:16;22.00;15.00
26743;DHT22;14341;51.256;22.478;2022-08-03T07:15:24;22.30;7.70
26743;DHT22;14341;51.256;22.478;2022-08-03T07:18:47;22.40;14.30
26743;DHT22;14341;51.256;22.478;2022-08-03T07:21:51;22.70;1.00
26743;DHT22;14341;51.256;22.478;2022-08-03T07:24:55;22.80;1.00
26743;DHT22;14341;51.256;22.478;2022-08-03T07:31:03;22.80;1.00
26743;DHT22;14341;51.256;22.478;2022-08-03T07:34:07;22.70;1.00
26743;DHT22;14341;51.256;22.478;2022-08-03T07:37:10;22.90;1.00
26743;DHT22;14341;51.256;22.478;2022-08-03T07:40:13;22.90;1.00
26743;DHT22;14341;51.256;22.478;2022-08-03T07:46:25;23.20;1.00
26743;DHT22;14341;51.256;22.478;2022-08-03T07:49:28;23.20;1.00
26743;DHT22;14341;51.256;22.478;2022-08-03T07:52:32;23.30;1.00
26743;DHT22;14341;51.256;22.478;2022-08-03T07:55:51;23.60;1.00
26743;DHT22;14341;51.256;22.478;2022-08-03T07:58:56;23.80;1.00
26743;DHT22;14341;51.256;22.478;2022-08-03T08:02:00;23.90;1.00
26743;DHT22;14341;51.256;22.478;2022-08-03T08:05:04;24.10;1.00
26743;DHT22;14341;51.256;22.478;2022-08-03T08:08:08;24.10;1.00
26743;DHT22;14341;51.256;22.478;2022-08-03T08:11:12;24.20;1.00
26743;DHT22;14341;51.256;22.478;2022-08-03T08:14:17;24.10;1.00
26743;DHT22;14341;51.256;22.478;2022-08-03T08:17:20;24.20;1.00
26743;DHT22;14341;51.256;22.478;2022-08-03T08:20:25;24.70;1.00
26743;DHT22;14341;51.256;22.478;2022-08-03T08:23:32;24.90;1.00
26743;DHT22;14341;51.256;22.478;2022-08-03T08:26:44;25.30;1.00
26743;DHT22;14341;51.256;22.478;2022-08-03T08:32:56;25.80;1.00
26743;DHT22;14341;51.256;22.478;2022-08-03T08:35:59;26.30;1.00
26743;DHT22;14341;51.256;22.478;2022-08-03T08:39:03;25.80;1.00
26743;DHT22;14341;51.256;22.478;2022-08-03T08:42:06;24.60;1.00
26743;DHT22;14341;51.256;22.478;2022-08-03T08:48:20;26.30;1.00
26743;DHT22;14341;51.256;22.478;2022-08-03T08:51:28;26.70;1.00
26743;DHT22;14341;51.256;22.478;2022-08-03T08:54:54;27.20;1.00
26743;DHT22;14341;51.256;22.478;2022-08-03T08:58:01;27.10;1.00
26743;DHT22;14341;51.256;22.478;2022-08-03T09:04:12;27.40;1.00
26743;DHT22;14341;51.256;22.478;2022-08-03T09:07:16;27.40;1.00
26743;DHT22;14341;51.256;22.478;2022-08-03T09:10:21;27.30;1.00
26743;DHT22;14341;51.256;22.478;2022-08-03T09:13:25;27.00;1.00
26743;DHT22;14341;51.256;22.478;2022-08-03T09:16:31;27.40;1.00
26743;DHT22;14341;51.256;22.478;2022-08-03T09:19:35;27.70;1.00
26743;DHT22;14341;51.256;22.478;2022-08-03T09:22:51;27.80;1.00
26743;DHT22;14341;51.256;22.478;2022-08-03T09:25:57;28.20;1.00
26743;DHT22;14341;51.256;22.478;2022-08-03T09:29:05;28.50;1.00
26743;DHT22;14341;51.256;22.478;2022-08-03T09:32:19;28.50;1.00
26743;DHT22;14341;51.256;22.478;2022-08-03T09:35:26;28.50;1.00
26743;DHT22;14341;51.256;22.478;2022-08-03T09:39:00;29.10;1.00
26743;DHT22;14341;51.256;22.478;2022-08-03T09:42:06;29.20;1.00
26743;DHT22;14341;51.256;22.478;2022-08-03T09:45:25;29.50;1.00
26743;DHT22;14341;51.256;22.478;2022-08-03T09:48:31;28.20;1.00
26743;DHT22;14341;51.256;22.478;2022-08-03T09:51:36;28.10;1.00
26743;DHT22;14341;51.256;22.478;2022-08-03T09:55:00;27.70;1.00
26743;DHT22;14341;51.256;22.478;2022-08-03T09:58:04;27.40;1.00
26743;DHT22;14341;51.256;22.478;2022-08-03T10:01:10;27.20;1.00
26743;DHT22;14341;51.256;22.478;2022-08-03T10:04:27;27.60;1.00
26743;DHT22;14341;51.256;22.478;2022-08-03T10:07:41;27.30;1.00
26743;DHT22;14341;51.256;22.478;2022-08-03T10:10:48;26.90;1.00
26743;DHT22;14341;51.256;22.478;2022-08-03T10:13:54;26.90;1.00
26743;DHT22;14341;51.256;22.478;2022-08-03T10:17:02;26.40;1.00
26743;DHT22;14341;51.256;22.478;2022-08-03T10:20:08;26.30;1.00
26743;DHT22;14341;51.256;22.478;2022-08-03T10:23:13;26.00;1.00
26743;DHT22;14341;51.256;22.478;2022-08-03T10:26:21;26.10;1.00
26743;DHT22;14341;51.256;22.478;2022-08-03T10:29:27;26.10;1.00
26743;DHT22;14341;51.256;22.478;2022-08-03T10:32:34;25.90;1.00
26743;DHT22;14341;51.256;22.478;2022-08-03T10:35:41;25.90;1.00
26743;DHT22;14341;51.256;22.478;2022-08-03T10:38:50;25.90;1.00
26743;DHT22;14341;51.256;22.478;2022-08-03T10:41:56;25.90;1.00
26743;DHT22;14341;51.256;22.478;2022-08-03T10:45:05;25.60;21.90
26743;DHT22;14341;51.256;22.478;2022-08-03T10:48:34;26.10;1.00
26743;DHT22;14341;51.256;22.478;2022-08-03T10:54:44;26.80;1.00
26743;DHT22;14341;51.256;22.478;2022-08-03T10:58:11;27.00;1.00
26743;DHT22;14341;51.256;22.478;2022-08-03T11:01:51;27.20;1.00
26743;DHT22;14341;51.256;22.478;2022-08-03T11:05:25;27.20;1.00
26743;DHT22;14341;51.256;22.478;2022-08-03T11:08:32;27.90;1.00
26743;DHT22;14341;51.256;22.478;2022-08-03T11:14:46;28.00;1.00
26743;DHT22;14341;51.256;22.478;2022-08-03T11:18:07;28.50;1.00
26743;DHT22;14341;51.256;22.478;2022-08-03T11:21:12;28.90;1.00
26743;DHT22;14341;51.256;22.478;2022-08-03T11:28:27;28.20;1.00
26743;DHT22;14341;51.256;22.478;2022-08-03T11:31:55;28.20;1.00
26743;DHT22;14341;51.256;22.478;2022-08-03T11:35:09;27.60;1.00
26743;DHT22;14341;51.256;22.478;2022-08-03T11:38:12;28.70;1.00
26743;DHT22;14341;51.256;22.478;2022-08-03T11:41:33;28.40;1.00
26743;DHT22;14341;51.256;22.478;2022-08-03T11:44:48;28.40;1.00
26743;DHT22;14341;51.256;22.478;2022-08-03T11:47:53;30.40;1.00
26743;DHT22;14341;51.256;22.478;2022-08-03T11:55:32;31.90;1.00
26743;DHT22;14341;51.256;22.478;2022-08-03T11:58:35;30.30;1.00
26743;DHT22;14341;51.256;22.478;2022-08-03T12:02:07;30.80;1.00
26743;DHT22;14341;51.256;22.478;2022-08-03T12:05:10;31.50;1.00
26743;DHT22;14341;51.256;22.478;2022-08-03T12:08:15;32.90;1.00
26743;DHT22;14341;51.256;22.478;2022-08-03T12:11:18;32.70;1.00
26743;DHT22;14341;51.256;22.478;2022-08-03T12:14:22;31.80;1.00
26743;DHT22;14341;51.256;22.478;2022-08-03T12:17:46;30.50;1.00
26743;DHT22;14341;51.256;22.478;2022-08-03T12:20:51;29.40;1.00
26743;DHT22;14341;51.256;22.478;2022-08-03T12:23:58;29.10;1.00
26743;DHT22;14341;51.256;22.478;2022-08-03T12:27:02;28.70;1.00
26743;DHT22;14341;51.256;22.478;2022-08-03T12:30:06;30.30;1.00
26743;DHT22;14341;51.256;22.478;2022-08-03T12:33:23;31.00;1.00
26743;DHT22;14341;51.256;22.478;2022-08-03T12:36:28;33.10;1.00
26743;DHT22;14341;51.256;22.478;2022-08-03T12:39:31;33.90;1.00
26743;DHT22;14341;51.256;22.478;2022-08-03T12:42:36;34.00;1.00
26743;DHT22;14341;51.256;22.478;2022-08-03T12:45:40;34.20;1.00
26743;DHT22;14341;51.256;22.478;2022-08-03T12:49:15;32.50;1.00
26743;DHT22;14341;51.256;22.478;2022-08-03T12:52:21;32.50;1.00
26743;DHT22;14341;51.256;22.478;2022-08-03T12:55:25;31.70;1.00
26743;DHT22;14341;51.256;22.478;2022-08-03T12:58:54;33.00;1.00
26743;DHT22;14341;51.256;22.478;2022-08-03T13:01:58;34.30;1.00
26743;DHT22;14341;51.256;22.478;2022-08-03T13:05:10;34.70;1.00
26743;DHT22;14341;51.256;22.478;2022-08-03T13:08:17;34.60;1.00
26743;DHT22;14341;51.256;22.478;2022-08-03T13:11:24;35.20;1.00
26743;DHT22;14341;51.256;22.478;2022-08-03T13:14:50;34.70;1.00
26743;DHT22;14341;51.256;22.478;2022-08-03T13:17:54;33.30;1.00
26743;DHT22;14341;51.256;22.478;2022-08-03T13:20:58;34.90;1.00
26743;DHT22;14341;51.256;22.478;2022-08-03T13:24:04;35.70;1.00
26743;DHT22;14341;51.256;22.478;2022-08-03T13:27:09;37.00;1.00
26743;DHT22;14341;51.256;22.478;2022-08-03T13:30:32;35.20;1.00
26743;DHT22;14341;51.256;22.478;2022-08-03T13:33:37;34.80;1.00
26743;DHT22;14341;51.256;22.478;2022-08-03T13:40:07;30.70;1.00
26743;DHT22;14341;51.256;22.478;2022-08-03T13:49:21;28.90;1.00
26743;DHT22;14341;51.256;22.478;2022-08-03T13:55:29;30.90;1.00
26743;DHT22;14341;51.256;22.478;2022-08-03T13:58:33;31.60;1.00
26743;DHT22;14341;51.256;22.478;2022-08-03T14:01:36;33.50;1.00
26743;DHT22;14341;51.256;22.478;2022-08-03T14:04:56;31.90;1.00
26743;DHT22;14341;51.256;22.478;2022-08-03T14:08:01;33.80;1.00
26743;DHT22;14341;51.256;22.478;2022-08-03T14:11:06;34.00;1.00
26743;DHT22;14341;51.256;22.478;2022-08-03T14:14:10;34.50;1.00
26743;DHT22;14341;51.256;22.478;2022-08-03T14:17:14;32.80;1.00
26743;DHT22;14341;51.256;22.478;2022-08-03T14:34:44;31.60;1.00
26743;DHT22;14341;51.256;22.478;2022-08-03T15:03:01;34.80;1.00
26743;DHT22;14341;51.256;22.478;2022-08-03T15:06:23;34.50;1.00
26743;DHT22;14341;51.256;22.478;2022-08-03T15:12:59;36.10;1.00
26743;DHT22;14341;51.256;22.478;2022-08-03T15:16:04;36.50;1.00
26743;DHT22;14341;51.256;22.478;2022-08-03T15:19:39;37.00;1.00
26743;DHT22;14341;51.256;22.478;2022-08-03T15:23:14;35.10;1.00
26743;DHT22;14341;51.256;22.478;2022-08-03T15:30:15;36.40;1.00
26743;DHT22;14341;51.256;22.478;2022-08-03T15:33:20;37.20;1.00
26743;DHT22;14341;51.256;22.478;2022-08-03T15:36:24;36.40;1.00
26743;DHT22;14341;51.256;22.478;2022-08-03T15:39:27;37.50;1.00
26743;DHT22;14341;51.256;22.478;2022-08-03T15:42:32;35.30;1.00
26743;DHT22;14341;51.256;22.478;2022-08-03T15:45:35;36.30;1.00
26743;DHT22;14341;51.256;22.478;2022-08-03T15:48:40;35.50;1.00
26743;DHT22;14341;51.256;22.478;2022-08-03T15:51:43;36.00;1.00
26743;DHT22;14341;51.256;22.478;2022-08-03T16:01:37;36.60;1.00
26743;DHT22;14341;51.256;22.478;2022-08-03T16:07:46;31.70;1.00
26743;DHT22;14341;51.256;22.478;2022-08-03T16:11:09;31.50;1.00
26743;DHT22;14341;51.256;22.478;2022-08-03T16:20:44;27.50;1.00
26743;DHT22;14341;51.256;22.478;2022-08-03T16:23:50;29.10;1.00
26743;DHT22;14341;51.256;22.478;2022-08-03T16:26:53;31.00;1.00
26743;DHT22;14341;51.256;22.478;2022-08-03T16:30:00;31.80;1.00
26743;DHT22;14341;51.256;22.478;2022-08-03T16:33:03;31.60;1.00
26743;DHT22;14341;51.256;22.478;2022-08-03T16:36:11;31.30;1.00
26743;DHT22;14341;51.256;22.478;2022-08-03T16:39:18;26.00;1.00
26743;DHT22;14341;51.256;22.478;2022-08-03T16:45:28;28.20;1.00
26743;DHT22;14341;51.256;22.478;2022-08-03T16:48:35;26.90;1.00
26743;DHT22;14341;51.256;22.478;2022-08-03T17:11:11;25.50;1.00
26743;DHT22;14341;51.256;22.478;2022-08-03T17:14:18;24.90;1.00
26743;DHT22;14341;51.256;22.478;2022-08-03T17:21:01;24.50;1.00
26743;DHT22;14341;51.256;22.478;2022-08-03T17:24:48;24.40;1.00
26743;DHT22;14341;51.256;22.478;2022-08-03T17:39:21;23.50;1.00
26743;DHT22;14341;51.256;22.478;2022-08-03T17:51:09;22.90;2.40
26743;DHT22;14341;51.256;22.478;2022-08-03T17:54:55;22.70;14.80
26743;DHT22;14341;51.256;22.478;2022-08-03T18:02:49;22.20;40.80
26743;DHT22;14341;51.256;22.478;2022-08-03T18:18:30;21.20;90.00
26743;DHT22;14341;51.256;22.478;2022-08-03T18:21:35;21.20;90.20
26743;DHT22;14341;51.256;22.478;2022-08-03T18:24:59;21.10;91.90
26743;DHT22;14341;51.256;22.478;2022-08-03T18:28:10;21.00;93.10
26743;DHT22;14341;51.256;22.478;2022-08-03T18:31:16;20.90;94.20
26743;DHT22;14341;51.256;22.478;2022-08-03T18:34:42;20.60;97.10
26743;DHT22;14341;51.256;22.478;2022-08-03T18:37:57;20.60;97.20
26743;DHT22;14341;51.256;22.478;2022-08-03T18:41:01;20.50;99.40
26743;DHT22;14341;51.256;22.478;2022-08-03T18:44:16;20.40;97.50
26743;DHT22;14341;51.256;22.478;2022-08-03T18:47:56;20.40;99.00
26743;DHT22;14341;51.256;22.478;2022-08-03T18:51:04;20.10;99.90
26743;DHT22;14341;51.256;22.478;2022-08-03T18:54:11;20.00;99.90
26743;DHT22;14341;51.256;22.478;2022-08-03T18:57:41;19.90;99.90
26743;DHT22;14341;51.256;22.478;2022-08-03T19:01:04;19.80;99.90
26743;DHT22;14341;51.256;22.478;2022-08-03T19:04:32;19.80;99.90
26743;DHT22;14341;51.256;22.478;2022-08-03T19:07:42;19.60;99.90
26743;DHT22;14341;51.256;22.478;2022-08-03T19:11:03;19.60;99.90
26743;DHT22;14341;51.256;22.478;2022-08-03T19:14:10;19.50;99.90
26743;DHT22;14341;51.256;22.478;2022-08-03T19:17:15;19.40;99.90
26743;DHT22;14341;51.256;22.478;2022-08-03T19:20:24;19.30;99.90
26743;DHT22;14341;51.256;22.478;2022-08-03T19:23:50;19.10;99.90
26743;DHT22;14341;51.256;22.478;2022-08-03T19:26:57;19.10;99.90
26743;DHT22;14341;51.256;22.478;2022-08-03T19:30:22;19.10;99.90
26743;DHT22;14341;51.256;22.478;2022-08-03T19:33:42;19.10;99.90
26743;DHT22;14341;51.256;22.478;2022-08-03T19:36:58;19.00;99.90
26743;DHT22;14341;51.256;22.478;2022-08-03T19:40:06;18.90;99.90
26743;DHT22;14341;51.256;22.478;2022-08-03T19:43:19;18.90;99.90
26743;DHT22;14341;51.256;22.478;2022-08-03T19:46:25;18.60;99.90
26743;DHT22;14341;51.256;22.478;2022-08-03T19:49:36;18.60;99.90
26743;DHT22;14341;51.256;22.478;2022-08-03T19:53:03;18.60;99.90
26743;DHT22;14341;51.256;22.478;2022-08-03T19:56:09;18.50;99.90
26743;DHT22;14341;51.256;22.478;2022-08-03T19:59:19;18.50;99.90
26743;DHT22;14341;51.256;22.478;2022-08-03T20:02:27;18.30;99.90
26743;DHT22;14341;51.256;22.478;2022-08-03T20:05:31;18.20;99.90
26743;DHT22;14341;51.256;22.478;2022-08-03T20:12:01;18.00;99.90
26743;DHT22;14341;51.256;22.478;2022-08-03T20:15:05;18.00;99.90
26743;DHT22;14341;51.256;22.478;2022-08-03T20:18:10;17.90;99.90
26743;DHT22;14341;51.256;22.478;2022-08-03T20:21:20;17.80;99.90
26743;DHT22;14341;51.256;22.478;2022-08-03T20:24:28;17.80;99.90
26743;DHT22;14341;51.256;22.478;2022-08-03T20:27:44;17.80;99.90
26743;DHT22;14341;51.256;22.478;2022-08-03T20:31:08;17.70;99.90
26743;DHT22;14341;51.256;22.478;2022-08-03T20:37:18;17.60;99.90
26743;DHT22;14341;51.256;22.478;2022-08-03T20:40:22;17.60;99.90
26743;DHT22;14341;51.256;22.478;2022-08-03T20:46:33;17.50;99.90
26743;DHT22;14341;51.256;22.478;2022-08-03T20:49:58;17.40;99.90
26743;DHT22;14341;51.256;22.478;2022-08-03T20:53:02;17.30;99.90
26743;DHT22;14341;51.256;22.478;2022-08-03T20:56:08;17.30;99.90
26743;DHT22;14341;51.256;22.478;2022-08-03T20:59:18;17.30;99.90
26743;DHT22;14341;51.256;22.478;2022-08-03T21:02:22;17.20;99.90
26743;DHT22;14341;51.256;22.478;2022-08-03T21:05:33;17.20;99.90
26743;DHT22;14341;51.256;22.478;2022-08-03T21:08:55;17.10;99.90
26743;DHT22;14341;51.256;22.478;2022-08-03T21:12:06;17.10;99.90
26743;DHT22;14341;51.256;22.478;2022-08-03T21:15:12;17.10;99.90
26743;DHT22;14341;51.256;22.478;2022-08-03T21:18:42;17.10;99.90
26743;DHT22;14341;51.256;22.478;2022-08-03T21:21:47;17.10;99.90
26743;DHT22;14341;51.256;22.478;2022-08-03T21:24:52;17.00;99.90
26743;DHT22;14341;51.256;22.478;2022-08-03T21:27:59;17.10;99.90
26743;DHT22;14341;51.256;22.478;2022-08-03T21:31:04;17.10;99.90
26743;DHT22;14341;51.256;22.478;2022-08-03T21:34:08;17.00;99.90
26743;DHT22;14341;51.256;22.478;2022-08-03T21:37:12;17.00;99.90
26743;DHT22;14341;51.256;22.478;2022-08-03T21:40:16;17.00;99.90
26743;DHT22;14341;51.256;22.478;2022-08-03T21:43:20;16.90;99.90
26743;DHT22;14341;51.256;22.478;2022-08-03T21:46:26;16.80;99.90
26743;DHT22;14341;51.256;22.478;2022-08-03T21:49:35;16.70;99.90
26743;DHT22;14341;51.256;22.478;2022-08-03T21:52:59;16.70;99.90
26743;DHT22;14341;51.256;22.478;2022-08-03T21:56:06;16.60;99.90
26743;DHT22;14341;51.256;22.478;2022-08-03T21:59:16;16.60;99.90
26743;DHT22;14341;51.256;22.478;2022-08-03T22:02:23;16.50;99.90
26743;DHT22;14341;51.256;22.478;2022-08-03T22:05:28;16.40;99.90
26743;DHT22;14341;51.256;22.478;2022-08-03T22:08:46;16.30;99.90
26743;DHT22;14341;51.256;22.478;2022-08-03T22:11:50;16.30;99.90
26743;DHT22;14341;51.256;22.478;2022-08-03T22:14:56;16.20;99.90
26743;DHT22;14341;51.256;22.478;2022-08-03T22:18:05;16.10;99.90
26743;DHT22;14341;51.256;22.478;2022-08-03T22:21:11;16.10;99.90
26743;DHT22;14341;51.256;22.478;2022-08-03T22:24:18;16.10;99.90
26743;DHT22;14341;51.256;22.478;2022-08-03T22:27:25;16.10;99.90
26743;DHT22;14341;51.256;22.478;2022-08-03T22:30:35;16.10;99.90
26743;DHT22;14341;51.256;22.478;2022-08-03T22:33:43;16.00;99.90
26743;DHT22;14341;51.256;22.478;2022-08-03T22:36:47;15.90;99.90
26743;DHT22;14341;51.256;22.478;2022-08-03T22:39:52;15.90;99.90
26743;DHT22;14341;51.256;22.478;2022-08-03T22:42:56;15.80;99.90
26743;DHT22;14341;51.256;22.478;2022-08-03T22:46:00;15.70;99.90
26743;DHT22;14341;51.256;22.478;2022-08-03T22:49:15;15.70;99.90
26743;DHT22;14341;51.256;22.478;2022-08-03T22:52:20;15.60;99.90
26743;DHT22;14341;51.256;22.478;2022-08-03T22:55:26;15.60;99.90
26743;DHT22;14341;51.256;22.478;2022-08-03T23:01:37;15.50;99.90
26743;DHT22;14341;51.256;22.478;2022-08-03T23:04:44;15.50;99.90
26743;DHT22;14341;51.256;22.478;2022-08-03T23:07:49;15.40;99.90
26743;DHT22;14341;51.256;22.478;2022-08-03T23:10:57;15.40;99.90
26743;DHT22;14341;51.256;22.478;2022-08-03T23:14:06;15.40;99.90
26743;DHT22;14341;51.256;22.478;2022-08-03T23:17:14;15.40;99.90